createdAt,value
2023-04-02T00:01:55.318Z,94078.88
2023-04-02T00:04:22.637Z,94084.69
2023-04-02T00:07:19.274Z,94082.06
2023-04-02T00:09:46.529Z,94088.13
2023-04-02T00:12:18.762Z,94087.31
2023-04-02T00:14:49.195Z,94086.53
2023-04-02T00:17:16.374Z,94087.56
2023-04-02T00:19:47.688Z,94086.53
2023-04-02T00:22:18.514Z,94089.41
2023-04-02T00:24:46.204Z,94084.16
2023-04-02T00:27:15.749Z,94091.28
2023-04-02T00:29:47.843Z,94088.63
2023-04-02T00:32:21.667Z,94091.53
2023-04-02T00:34:49.448Z,94097.84
2023-04-02T00:37:23.826Z,94097.84
2023-04-02T00:39:55.084Z,94101.78
2023-04-02T00:42:25.294Z,94103.09
2023-04-02T00:44:54.729Z,94098.34
2023-04-02T00:47:24.646Z,94106.78
2023-04-02T00:49:57.645Z,94107.81
2023-04-02T00:52:28.278Z,94107.31
2023-04-02T00:55:05.447Z,94103.06
2023-04-02T00:57:34.467Z,94108.59
2023-04-02T01:00:19.157Z,94112.81
2023-04-02T01:03:30.784Z,94111.50
2023-04-02T01:06:02.952Z,94109.16
2023-04-02T01:08:49.157Z,94124.13
2023-04-02T01:11:46.619Z,94124.38
2023-04-02T01:14:23.101Z,94118.28
2023-04-02T01:17:00.555Z,94130.09
2023-04-02T01:19:54.636Z,94119.00
2023-04-02T01:22:30.865Z,94122.91
2023-04-02T01:24:58.583Z,94124.97
2023-04-02T01:27:32.597Z,94117.59
2023-04-02T01:30:03.582Z,94113.13
2023-04-02T01:32:31.696Z,94121.50
2023-04-02T01:34:58.931Z,94127.03
2023-04-02T01:37:45.155Z,94124.69
2023-04-02T01:40:34.534Z,94118.09
2023-04-02T01:43:12.321Z,94128.81
2023-04-02T01:45:40.562Z,94126.69
2023-04-02T01:48:14.644Z,94130.91
2023-04-02T01:50:44.060Z,94138.25
2023-04-02T01:53:12.452Z,94139.81
2023-04-02T01:55:42.595Z,94139.50
2023-04-02T01:58:11.796Z,94140.56
2023-04-02T02:00:46.316Z,94143.72
2023-04-02T02:03:14.337Z,94141.06
2023-04-02T02:05:41.642Z,94141.81
2023-04-02T02:08:21.828Z,94144.94
2023-04-02T02:10:49.935Z,94143.56
2023-04-02T02:13:16.727Z,94138.00
2023-04-02T02:15:45.010Z,94142.34
2023-04-02T02:18:13.351Z,94149.41
2023-04-02T02:20:40.466Z,94154.88
2023-04-02T02:23:09.199Z,94146.44
2023-04-02T02:25:37.431Z,94147.72
2023-04-02T02:28:08.088Z,94152.44
2023-04-02T02:30:37.908Z,94150.03
2023-04-02T02:33:10.759Z,94154.44
2023-04-02T02:35:43.570Z,94152.56
2023-04-02T02:38:34.753Z,94159.31
2023-04-02T02:41:15.271Z,94156.06
2023-04-02T02:43:46.466Z,94161.50
2023-04-02T02:46:17.908Z,94158.03
2023-04-02T02:48:47.183Z,94171.66
2023-04-02T02:51:21.925Z,94170.88
2023-04-02T02:53:54.100Z,94175.56
2023-04-02T02:56:23.767Z,94176.53
2023-04-02T02:58:53.597Z,94181.47
2023-04-02T03:01:28.273Z,94184.38
2023-04-02T03:03:56.644Z,94180.91
2023-04-02T03:06:26.190Z,94189.28
2023-04-02T03:09:03.408Z,94189.78
2023-04-02T03:11:40.110Z,94185.03
2023-04-02T03:14:16.980Z,94188.63
2023-04-02T03:16:47.322Z,94184.91
2023-04-02T03:19:28.798Z,94188.06
2023-04-02T03:22:03.243Z,94190.69
2023-04-02T03:24:39.963Z,94188.31
2023-04-02T03:27:14.198Z,94194.03
2023-04-02T03:29:45.465Z,94197.94
2023-04-02T03:32:17.634Z,94198.72
2023-04-02T03:34:50.005Z,94206.03
2023-04-02T03:37:23.104Z,94205.81
2023-04-02T03:39:55.625Z,94211.84
2023-04-02T03:42:27.386Z,94207.66
2023-04-02T03:45:03.634Z,94213.13
2023-04-02T03:47:34.560Z,94208.38
2023-04-02T03:50:07.981Z,94216.72
2023-04-02T03:52:37.919Z,94211.97
2023-04-02T03:55:16.042Z,94216.34
2023-04-02T03:57:52.863Z,94224.66
2023-04-02T04:00:27.396Z,94218.03
2023-04-02T04:03:02.967Z,94220.09
2023-04-02T04:05:35.262Z,94228.66
2023-04-02T04:08:06.432Z,94234.41
2023-04-02T04:10:35.952Z,94230.16
2023-04-02T04:13:07.038Z,94240.66
2023-04-02T04:15:38.566Z,94236.22
2023-04-02T04:18:19.152Z,94244.81
2023-04-02T04:20:57.112Z,94248.13
2023-04-02T04:23:32.534Z,94248.06
2023-04-02T04:26:10.617Z,94257.75
2023-04-02T04:28:44.802Z,94253.84
2023-04-02T04:31:21.847Z,94257.13
2023-04-02T04:33:55.600Z,94249.00
2023-04-02T04:36:32.662Z,94254.50
2023-04-02T04:39:09.585Z,94254.16
2023-04-02T04:41:39.568Z,94264.66
2023-04-02T04:44:12.878Z,94266.25
2023-04-02T04:46:45.307Z,94270.22
2023-04-02T04:49:17.620Z,94262.38
2023-04-02T04:51:52.209Z,94265.22
2023-04-02T04:54:20.318Z,94273.56
2023-04-02T04:56:55.518Z,94274.59
2023-04-02T04:59:27.395Z,94281.19
2023-04-02T05:02:01.782Z,94279.66
2023-04-02T05:04:34.665Z,94276.34
2023-04-02T05:07:08.442Z,94292.38
2023-04-02T05:09:38.925Z,94296.84
2023-04-02T05:12:16.296Z,94303.56
2023-04-02T05:14:51.175Z,94305.56
2023-04-02T05:17:23.706Z,94315.88
2023-04-02T05:19:57.127Z,94314.34
2023-04-02T05:22:37.487Z,94318.34
2023-04-02T05:25:18.907Z,94317.03
2023-04-02T05:27:52.697Z,94317.44
2023-04-02T05:30:49.579Z,94320.44
2023-04-02T05:33:24.885Z,94320.50
2023-04-02T05:36:05.744Z,94324.13
2023-04-02T05:38:46.343Z,94332.47
2023-04-02T05:41:22.773Z,94330.41
2023-04-02T05:43:56.919Z,94328.69
2023-04-02T05:46:28.075Z,94334.91
2023-04-02T05:48:58.976Z,94336.16
2023-04-02T05:51:31.303Z,94336.88
2023-04-02T05:54:03.938Z,94341.53
2023-04-02T05:56:36.666Z,94336.69
2023-04-02T05:59:08.495Z,94346.25
2023-04-02T06:01:41.605Z,94345.06
2023-04-02T06:04:21.424Z,94353.31
2023-04-02T06:06:57.630Z,94350.31
2023-04-02T06:09:34.950Z,94353.56
2023-04-02T06:12:15.646Z,94356.81
2023-04-02T06:14:43.611Z,94353.25
2023-04-02T06:21:29.568Z,94352.53
2023-04-02T06:24:01.551Z,94347.78
2023-04-02T06:26:35.208Z,94353.63
2023-04-02T06:29:09.142Z,94352.31
2023-04-02T06:31:41.055Z,94348.09
2023-04-02T06:34:16.232Z,94357.22
2023-04-02T06:36:51.604Z,94352.38
2023-04-02T06:39:22.812Z,94363.34
2023-04-02T06:41:56.576Z,94362.28
2023-04-02T06:44:35.076Z,94363.75
2023-04-02T06:47:33.961Z,94368.06
2023-04-02T06:50:07.466Z,94373.88
2023-04-02T06:52:38.732Z,94378.63
2023-04-02T06:55:28.233Z,94380.81
2023-04-02T06:57:57.183Z,94379.53
2023-04-02T07:00:28.150Z,94379.84
2023-04-02T07:02:56.458Z,94387.06
2023-04-02T07:05:23.553Z,94387.19
2023-04-02T07:07:50.455Z,94392.31
2023-04-02T07:10:19.916Z,94391.63
2023-04-02T07:12:48.539Z,94397.19
2023-04-02T07:15:19.108Z,94395.06
2023-04-02T07:17:46.705Z,94398.47
2023-04-02T07:20:27.447Z,94403.22
2023-04-02T07:22:55.872Z,94402.19
2023-04-02T07:25:23.314Z,94397.44
2023-04-02T07:27:51.353Z,94411.41
2023-04-02T07:30:19.827Z,94412.75
2023-04-02T07:32:46.835Z,94413.28
2023-04-02T07:35:13.882Z,94422.34
2023-04-02T07:37:41.152Z,94427.66
2023-04-02T07:40:17.391Z,94420.78
2023-04-02T07:42:44.499Z,94427.69
2023-04-02T07:45:11.987Z,94428.72
2023-04-02T07:47:40.725Z,94429.50
2023-04-02T07:50:08.325Z,94430.31
2023-04-02T07:52:40.547Z,94435.28
2023-04-02T07:55:08.822Z,94436.09
2023-04-02T07:57:39.104Z,94445.84
2023-04-02T08:00:07.929Z,94446.94
2023-04-02T08:02:41.037Z,94437.41
2023-04-02T08:05:09.089Z,94436.41
2023-04-02T08:07:36.299Z,94440.66
2023-04-02T08:10:04.864Z,94444.63
2023-04-02T08:12:31.852Z,94442.00
2023-04-02T08:14:58.587Z,94447.28
2023-04-02T08:17:26.479Z,94450.19
2023-04-02T08:19:56.020Z,94447.28
2023-04-02T08:22:22.837Z,94443.06
2023-04-02T08:24:49.479Z,94449.38
2023-04-02T08:27:16.459Z,94449.94
2023-04-02T08:29:43.067Z,94450.44
2023-04-02T08:32:12.349Z,94455.22
2023-04-02T08:34:39.000Z,94451.78
2023-04-02T08:37:07.841Z,94448.03
2023-04-02T08:39:35.193Z,94457.28
2023-04-02T08:42:07.191Z,94458.59
2023-04-02T08:44:45.497Z,94455.16
2023-04-02T08:47:13.520Z,94470.75
2023-04-02T08:49:44.697Z,94452.53
2023-04-02T08:52:22.108Z,94459.94
2023-04-02T08:54:49.788Z,94471.31
2023-04-02T08:57:27.672Z,94467.06
2023-04-02T09:00:01.638Z,94471.59
2023-04-02T09:02:35.842Z,94474.50
2023-04-02T09:05:06.519Z,94471.59
2023-04-02T09:07:35.112Z,94469.22
2023-04-02T09:10:02.272Z,94484.81
2023-04-02T09:12:31.054Z,94476.09
2023-04-02T09:15:14.973Z,94477.66
2023-04-02T09:17:53.116Z,94474.06
2023-04-02T09:20:23.150Z,94476.31
2023-04-02T09:22:51.409Z,94481.53
2023-04-02T09:25:21.525Z,94469.53
2023-04-02T09:27:50.179Z,94469.53
2023-04-02T09:30:30.522Z,94485.75
2023-04-02T09:32:58.691Z,94487.94
2023-04-02T09:35:27.739Z,94489.34
2023-04-02T09:38:19.469Z,94491.50
2023-04-02T09:40:50.695Z,94493.69
2023-04-02T09:43:20.090Z,94500.06
2023-04-02T09:45:56.060Z,94498.50
2023-04-02T09:48:26.203Z,94499.06
2023-04-02T09:51:05.430Z,94507.22
2023-04-02T09:53:36.078Z,94507.50
2023-04-02T09:56:11.800Z,94510.41
2023-04-02T09:58:38.506Z,94511.19
2023-04-02T10:01:08.454Z,94519.41
2023-04-02T10:03:35.347Z,94519.63
2023-04-02T10:06:08.200Z,94521.19
2023-04-02T10:08:40.071Z,94521.16
2023-04-02T10:11:10.942Z,94515.81
2023-04-02T10:13:46.296Z,94521.28
2023-04-02T10:16:17.745Z,94520.75
2023-04-02T10:18:48.695Z,94524.75
2023-04-02T10:21:18.969Z,94520.50
2023-04-02T10:23:47.094Z,94525.25
2023-04-02T10:26:37.454Z,94526.03
2023-04-02T10:29:31.742Z,94535.81
2023-04-02T10:32:05.170Z,94531.56
2023-04-02T10:34:39.426Z,94533.88
2023-04-02T10:37:20.887Z,94535.53
2023-04-02T10:39:55.284Z,94527.41
2023-04-02T10:42:26.653Z,94523.28
2023-04-02T10:44:59.514Z,94532.09
2023-04-02T10:47:38.182Z,94534.75
2023-04-02T10:50:26.351Z,94545.06
2023-04-02T10:53:00.459Z,94546.59
2023-04-02T10:55:33.888Z,94549.59
2023-04-02T10:58:08.058Z,94548.50
2023-04-02T11:00:39.420Z,94551.56
2023-04-02T11:03:13.255Z,94544.81
2023-04-02T11:05:44.507Z,94544.22
2023-04-02T11:08:18.327Z,94551.97
2023-04-02T11:10:49.454Z,94539.69
2023-04-02T11:13:23.169Z,94546.47
2023-04-02T11:15:50.823Z,94548.25
2023-04-02T11:18:27.586Z,94551.66
2023-04-02T11:21:02.645Z,94561.59
2023-04-02T11:23:32.658Z,94565.66
2023-04-02T11:26:38.185Z,94563.03
2023-04-02T11:29:12.183Z,94563.22
2023-04-02T11:31:39.369Z,94574.78
2023-04-02T11:34:06.149Z,94575.63
2023-04-02T11:36:59.365Z,94582.31
2023-04-02T11:39:46.449Z,94587.38
2023-04-02T11:42:25.470Z,94584.53
2023-04-02T11:44:52.324Z,94584.81
2023-04-02T11:47:21.471Z,94588.25
2023-04-02T11:50:27.595Z,94579.50
2023-04-02T11:52:54.963Z,94588.75
2023-04-02T11:58:38.080Z,94583.03
2023-04-02T12:01:45.120Z,94592.28
2023-04-02T12:04:50.326Z,94599.38
2023-04-02T12:07:36.857Z,94601.78
2023-04-02T12:10:06.966Z,94606.56
2023-04-02T12:12:40.840Z,94603.38
2023-04-02T12:15:42.154Z,94604.69
2023-04-02T12:18:15.687Z,94610.00
2023-04-02T12:20:47.720Z,94606.00
2023-04-02T12:23:20.039Z,94608.66
2023-04-02T12:25:55.224Z,94610.78
2023-04-02T12:28:23.161Z,94608.41
2023-04-02T12:31:02.151Z,94603.19
2023-04-02T12:33:33.656Z,94614.56
2023-04-02T12:36:02.567Z,94605.81
2023-04-02T12:38:30.959Z,94610.31
2023-04-02T12:40:59.519Z,94607.94
2023-04-02T12:43:28.010Z,94607.09
2023-04-02T12:45:59.071Z,94611.31
2023-04-02T12:48:26.994Z,94610.19
2023-04-02T12:50:54.702Z,94612.78
2023-04-02T12:53:25.361Z,94610.63
2023-04-02T12:55:53.571Z,94610.81
2023-04-02T12:58:29.642Z,94612.63
2023-04-02T13:01:12.250Z,94609.91
2023-04-02T13:03:38.940Z,94611.47
2023-04-02T13:06:21.960Z,94619.38
2023-04-02T13:08:49.111Z,94608.94
2023-04-02T13:11:16.256Z,94610.72
2023-04-02T13:13:45.000Z,94622.34
2023-04-02T13:16:34.571Z,94613.56
2023-04-02T13:19:21.844Z,94620.66
2023-04-02T13:21:48.562Z,94619.56
2023-04-02T13:24:20.013Z,94617.19
2023-04-02T13:26:49.865Z,94619.06
2023-04-02T13:29:23.792Z,94622.50
2023-04-02T13:31:52.948Z,94619.13
2023-04-02T13:34:20.682Z,94625.22
2023-04-02T13:36:48.027Z,94625.25
2023-04-02T13:39:15.241Z,94628.78
2023-04-02T13:41:44.272Z,94627.25
2023-04-02T13:44:23.695Z,94633.94
2023-04-02T13:46:52.989Z,94636.41
2023-04-02T13:49:19.915Z,94624.28
2023-04-02T13:51:49.502Z,94636.22
2023-04-02T13:54:22.057Z,94638.06
2023-04-02T13:56:48.856Z,94632.22
2023-04-02T13:59:16.160Z,94628.50
2023-04-02T14:01:46.138Z,94629.00
2023-04-02T14:04:31.222Z,94633.75
2023-04-02T14:07:29.312Z,94631.59
2023-04-02T14:10:04.963Z,94622.03
2023-04-02T14:12:36.642Z,94633.16
2023-04-02T14:15:17.884Z,94635.38
2023-04-02T14:17:55.333Z,94630.47
2023-04-02T14:20:36.425Z,94626.75
2023-04-02T14:23:18.605Z,94627.56
2023-04-02T14:25:50.727Z,94632.97
2023-04-02T14:28:27.939Z,94634.34
2023-04-02T14:31:03.575Z,94629.63
2023-04-02T14:33:36.117Z,94630.56
2023-04-02T14:36:13.334Z,94627.69
2023-04-02T14:38:50.810Z,94631.41
2023-04-02T14:41:22.752Z,94636.00
2023-04-02T14:43:54.408Z,94636.00
2023-04-02T14:46:25.447Z,94634.88
2023-04-02T14:48:56.658Z,94635.94
2023-04-02T14:51:30.750Z,94641.69
2023-04-02T14:54:07.190Z,94641.31
2023-04-02T14:56:41.522Z,94642.84
2023-04-02T14:59:23.472Z,94642.06
2023-04-02T15:01:57.185Z,94634.66
2023-04-02T15:04:30.525Z,94634.69
2023-04-02T15:07:04.934Z,94641.16
2023-04-02T15:09:35.585Z,94647.38
2023-04-02T15:12:07.372Z,94652.72
2023-04-02T15:14:38.838Z,94657.50
2023-04-02T15:17:07.216Z,94662.03
2023-04-02T15:19:33.968Z,94663.69
2023-04-02T15:22:13.493Z,94662.91
2023-04-02T15:24:47.891Z,94667.16
2023-04-02T15:27:39.927Z,94675.38
2023-04-02T15:30:13.226Z,94667.97
2023-04-02T15:32:41.482Z,94673.03
2023-04-02T15:35:31.735Z,94682.03
2023-04-02T15:38:11.675Z,94681.00
2023-04-02T15:40:51.928Z,94695.63
2023-04-02T15:43:24.031Z,94708.13
2023-04-02T15:49:02.503Z,94714.81
2023-04-02T15:51:39.427Z,94727.06
2023-04-02T15:54:23.326Z,94727.88
2023-04-02T15:56:57.674Z,94726.03
2023-04-02T15:59:51.911Z,94737.13
2023-04-02T16:02:39.518Z,94735.03
2023-04-02T16:05:15.144Z,94741.66
2023-04-02T16:08:02.339Z,94741.63
2023-04-02T16:10:42.041Z,94751.97
2023-04-02T16:13:15.491Z,94755.69
2023-04-02T16:15:46.377Z,94753.56
2023-04-02T16:18:21.197Z,94761.19
2023-04-02T16:20:51.167Z,94777.00
2023-04-02T16:23:22.189Z,94780.91
2023-04-02T16:25:59.261Z,94770.53
2023-04-02T16:28:33.420Z,94772.38
2023-04-02T16:31:09.527Z,94775.00
2023-04-02T16:33:52.108Z,94775.00
2023-04-02T16:36:30.927Z,94780.28
2023-04-02T16:39:03.609Z,94779.75
2023-04-02T16:41:46.857Z,94782.94
2023-04-02T16:44:29.449Z,94789.31
2023-04-02T16:47:05.588Z,94789.56
2023-04-02T16:49:45.479Z,94798.03
2023-04-02T16:52:29.987Z,94795.41
2023-04-02T17:00:55.177Z,94808.38
2023-04-02T17:03:55.656Z,94815.81
2023-04-02T17:12:21.988Z,94830.06
2023-04-02T17:37:23.580Z,94853.78
2023-04-02T17:39:59.935Z,94859.34
2023-04-02T17:42:40.640Z,94852.41
2023-04-02T17:45:14.951Z,94861.13
2023-04-02T17:47:50.018Z,94866.94
2023-04-02T17:51:02.970Z,94866.69
2023-04-02T17:53:53.717Z,94873.03
2023-04-02T17:56:38.274Z,94878.56
2023-04-02T17:59:30.551Z,94881.75
2023-04-02T18:02:07.358Z,94885.97
2023-04-02T18:04:41.759Z,94893.66
2023-04-02T18:07:29.321Z,94898.38
2023-04-02T18:10:29.419Z,94893.59
2023-04-02T18:13:06.324Z,94910.72
2023-04-02T18:15:50.274Z,94910.69
2023-04-02T18:18:31.130Z,94911.13
2023-04-02T18:21:10.192Z,94917.97
2023-04-02T18:23:48.877Z,94916.09
2023-04-02T18:26:28.668Z,94931.09
2023-04-02T18:29:08.288Z,94929.72
2023-04-02T18:31:47.692Z,94925.19
2023-04-02T18:34:51.473Z,94923.28
2023-04-02T18:37:27.768Z,94935.09
2023-04-02T18:40:19.728Z,94938.22
2023-04-02T18:43:00.534Z,94948.75
2023-04-02T18:45:41.195Z,94952.38
2023-04-02T18:48:22.745Z,94960.81
2023-04-02T18:50:50.110Z,94969.19
2023-04-02T18:53:19.219Z,94967.84
2023-04-02T18:55:50.543Z,94975.22
2023-04-02T18:58:24.749Z,94974.44
2023-04-02T19:00:54.324Z,94982.59
2023-04-02T19:03:28.118Z,94980.69
2023-04-02T19:06:04.366Z,94989.81
2023-04-02T19:08:34.433Z,94991.28
2023-04-02T19:11:07.781Z,94998.78
2023-04-02T19:13:34.833Z,94999.00
2023-04-02T19:16:45.167Z,95001.84
2023-04-02T19:19:17.907Z,94999.63
2023-04-02T19:22:01.658Z,95010.44
2023-04-02T19:24:41.619Z,95020.59
2023-04-02T19:27:17.893Z,95018.69
2023-04-02T19:29:57.842Z,95025.47
2023-04-02T19:32:34.944Z,95022.78
2023-04-02T19:35:11.734Z,95036.66
2023-04-02T19:37:41.366Z,95045.06
2023-04-02T19:40:21.207Z,95039.47
2023-04-02T19:42:49.290Z,95051.22
2023-04-02T19:45:27.419Z,95049.63
2023-04-02T19:48:08.898Z,95056.09
2023-04-02T19:53:20.570Z,95068.91
2023-04-02T19:55:48.152Z,95072.72
2023-04-02T19:58:26.271Z,95068.84
2023-04-02T20:00:53.073Z,95066.97
2023-04-02T20:03:27.595Z,95077.47
2023-04-02T20:05:54.839Z,95073.97
2023-04-02T20:08:23.169Z,95079.78
2023-04-02T20:10:52.216Z,95089.50
2023-04-02T20:13:19.573Z,95090.56
2023-04-02T20:15:47.333Z,95100.75
2023-04-02T20:18:16.765Z,95107.28
2023-04-02T20:20:47.617Z,95110.16
2023-04-02T20:23:17.533Z,95111.84
2023-04-02T20:25:45.549Z,95116.19
2023-04-02T20:28:14.575Z,95129.78
2023-04-02T20:30:42.271Z,95136.22
2023-04-02T20:33:15.360Z,95139.28
2023-04-02T20:35:42.203Z,95132.88
2023-04-02T20:38:18.968Z,95140.66
2023-04-02T20:40:52.340Z,95145.22
2023-04-02T20:43:19.930Z,95140.63
2023-04-02T20:45:56.481Z,95154.59
2023-04-02T20:48:23.441Z,95161.91
2023-04-02T20:50:51.266Z,95163.63
2023-04-02T20:53:20.093Z,95168.31
2023-04-02T20:55:47.361Z,95166.94
2023-04-02T20:58:20.491Z,95182.78
2023-04-02T21:00:48.357Z,95179.03
2023-04-02T21:03:23.793Z,95183.59
2023-04-02T21:05:50.661Z,95191.13
2023-04-02T21:08:21.159Z,95192.25
2023-04-02T21:10:47.789Z,95201.31
2023-04-02T21:13:14.592Z,95194.56
2023-04-02T21:15:44.242Z,95206.19
2023-04-02T21:18:11.093Z,95201.38
2023-04-02T21:20:37.957Z,95213.94
2023-04-02T21:23:04.740Z,95215.78
2023-04-02T21:25:35.174Z,95220.00
2023-04-02T21:28:02.085Z,95223.06
2023-04-02T21:30:28.960Z,95225.09
2023-04-02T21:32:55.958Z,95224.91
2023-04-02T21:35:22.742Z,95229.50
2023-04-02T21:37:49.418Z,95234.75
2023-04-02T21:40:19.263Z,95232.56
2023-04-02T21:42:47.586Z,95244.53
2023-04-02T21:45:14.543Z,95244.25
2023-04-02T21:47:41.367Z,95251.66
2023-04-02T21:50:09.443Z,95248.09
2023-04-02T21:52:36.194Z,95252.75
2023-04-02T21:55:02.988Z,95248.31
2023-04-02T21:57:31.553Z,95254.34
2023-04-02T21:59:59.815Z,95259.41
2023-04-02T22:02:26.604Z,95261.22
2023-04-02T22:04:53.835Z,95262.22
2023-04-02T22:07:22.367Z,95263.84
2023-04-02T22:09:49.045Z,95273.78
2023-04-02T22:12:16.401Z,95276.59
2023-04-02T22:14:43.093Z,95279.97
2023-04-02T22:17:11.391Z,95279.91
2023-04-02T22:19:38.228Z,95279.38
2023-04-02T22:22:04.992Z,95292.59
2023-04-02T22:24:32.476Z,95295.25
2023-04-02T22:26:59.224Z,95297.28
2023-04-02T22:29:26.115Z,95290.53
2023-04-02T22:31:53.260Z,95292.84
2023-04-02T22:34:21.865Z,95295.16
2023-04-02T22:36:48.568Z,95301.66
2023-04-02T22:39:17.041Z,95301.06
2023-04-02T22:41:43.875Z,95304.94
2023-04-02T22:44:14.583Z,95303.34
2023-04-02T22:46:41.776Z,95309.38
2023-04-02T22:49:08.675Z,95319.66
2023-04-02T22:51:37.028Z,95318.63
2023-04-02T22:54:04.035Z,95315.81
2023-04-02T22:56:35.402Z,95312.16
2023-04-02T22:59:02.283Z,95312.75
2023-04-02T23:01:32.061Z,95309.50
2023-04-02T23:03:59.206Z,95317.72
2023-04-02T23:06:27.048Z,95318.53
2023-04-02T23:08:56.213Z,95319.56
2023-04-02T23:11:28.636Z,95322.00
2023-04-02T23:13:57.872Z,95320.19
2023-04-02T23:16:27.485Z,95317.56
2023-04-02T23:18:55.426Z,95311.72
2023-04-02T23:21:22.686Z,95318.19
2023-04-02T23:23:50.501Z,95312.94
2023-04-02T23:26:32.747Z,95318.78
2023-04-02T23:28:59.944Z,95312.56
2023-04-02T23:31:28.530Z,95318.59
2023-04-02T23:33:57.182Z,95313.56
2023-04-02T23:36:26.061Z,95315.38
2023-04-02T23:39:02.697Z,95316.81
2023-04-02T23:41:31.377Z,95323.72
2023-04-02T23:43:59.624Z,95317.66
2023-04-02T23:46:26.425Z,95320.88
2023-04-02T23:48:57.478Z,95314.84
2023-04-02T23:51:26.754Z,95321.69
2023-04-02T23:53:56.099Z,95315.84
2023-04-02T23:56:23.066Z,95308.56
2023-04-02T23:58:51.856Z,95311.19
